createdAt,value
2023-04-11T00:00:14.998Z,4.20
2023-04-11T00:02:41.641Z,5.47
2023-04-11T00:05:08.958Z,4.43
2023-04-11T00:07:35.395Z,5.03
2023-04-11T00:10:02.370Z,5.10
2023-04-11T00:12:28.904Z,8.00
2023-04-11T00:14:55.556Z,5.13
2023-04-11T00:17:23.721Z,4.47
2023-04-11T00:19:53.140Z,6.17
2023-04-11T00:22:19.560Z,6.20
2023-04-11T00:24:45.998Z,3.80
2023-04-11T00:27:12.420Z,5.03
2023-04-11T00:29:38.825Z,4.53
2023-04-11T00:32:05.546Z,3.93
2023-04-11T00:34:32.122Z,5.30
2023-04-11T00:36:58.529Z,3.90
2023-04-11T00:39:26.477Z,5.80
2023-04-11T00:41:52.971Z,3.67
2023-04-11T00:44:19.360Z,2.97
2023-04-11T00:46:46.386Z,3.30
2023-04-11T00:49:13.034Z,4.90
2023-04-11T00:51:39.503Z,4.80
2023-04-11T00:54:10.523Z,8.23
2023-04-11T00:56:37.038Z,4.50
2023-04-11T00:59:03.483Z,4.73
2023-04-11T01:01:30.348Z,5.53
2023-04-11T01:03:57.108Z,4.87
2023-04-11T01:06:24.080Z,5.07
2023-04-11T01:08:50.691Z,4.30
2023-04-11T01:11:20.066Z,5.07
2023-04-11T01:13:46.802Z,3.73
2023-04-11T01:16:14.928Z,4.50
2023-04-11T01:18:41.637Z,6.43
2023-04-11T01:21:08.948Z,6.43
2023-04-11T01:23:35.412Z,5.13
2023-04-11T01:26:01.803Z,5.57
2023-04-11T01:28:28.157Z,5.33
2023-04-11T01:30:54.607Z,10.33
2023-04-11T01:35:47.803Z,2.67
2023-04-11T01:38:14.220Z,4.80
2023-04-11T01:40:41.456Z,3.37
2023-04-11T01:43:09.842Z,2.17
2023-04-11T01:45:36.417Z,6.00
2023-04-11T01:48:07.335Z,3.03
2023-04-11T01:50:34.064Z,2.30
2023-04-11T01:53:00.571Z,4.80
2023-04-11T01:55:27.142Z,1.33
2023-04-11T01:57:53.519Z,1.50
2023-04-11T02:00:20.356Z,4.10
2023-04-11T02:02:46.973Z,3.37
2023-04-11T02:05:13.452Z,2.73
2023-04-11T02:07:39.881Z,1.53
2023-04-11T02:10:07.044Z,1.83
2023-04-11T02:12:33.434Z,2.73
2023-04-11T02:14:59.799Z,1.70
2023-04-11T02:17:31.200Z,2.90
2023-04-11T02:19:57.897Z,3.20
2023-04-11T02:22:24.762Z,1.13
2023-04-11T02:24:51.390Z,1.10
2023-04-11T02:27:17.779Z,2.00
2023-04-11T02:29:44.191Z,1.23
2023-04-11T02:32:10.745Z,3.73
2023-04-11T02:34:37.243Z,1.67
2023-04-11T02:37:04.226Z,0.77
2023-04-11T02:39:30.608Z,1.27
2023-04-11T02:41:57.342Z,4.63
2023-04-11T02:44:23.797Z,1.67
2023-04-11T02:46:50.337Z,1.53
2023-04-11T02:49:16.906Z,3.97
2023-04-11T02:51:43.294Z,2.03
2023-04-11T02:54:09.703Z,3.60
2023-04-11T02:56:37.875Z,1.13
2023-04-11T02:59:06.351Z,1.40
2023-04-11T03:01:33.339Z,2.97
2023-04-11T03:03:59.858Z,3.70
2023-04-11T03:06:27.042Z,3.30
2023-04-11T03:08:54.024Z,5.33
2023-04-11T03:11:20.815Z,3.43
2023-04-11T03:13:47.445Z,0.83
2023-04-11T03:16:13.962Z,1.37
2023-04-11T03:18:40.545Z,2.37
2023-04-11T03:21:11.494Z,1.97
2023-04-11T03:23:38.581Z,3.43
2023-04-11T03:26:06.135Z,2.37
2023-04-11T03:28:32.534Z,3.33
2023-04-11T03:30:59.148Z,4.17
2023-04-11T03:33:25.852Z,3.37
2023-04-11T03:35:52.257Z,1.87
2023-04-11T03:38:18.691Z,4.40
2023-04-11T03:40:45.242Z,5.73
2023-04-11T03:43:11.773Z,4.20
2023-04-11T03:45:38.184Z,5.57
2023-04-11T03:48:04.944Z,4.00
2023-04-11T03:50:31.358Z,5.83
2023-04-11T03:52:57.770Z,4.93
2023-04-11T03:55:24.164Z,4.53
2023-04-11T03:57:50.667Z,4.13
2023-04-11T04:00:18.470Z,8.67
2023-04-11T04:02:45.060Z,5.17
2023-04-11T04:05:11.757Z,6.40
2023-04-11T04:07:38.226Z,7.20
2023-04-11T04:10:05.092Z,10.90
2023-04-11T04:12:31.698Z,5.40
2023-04-11T04:14:58.064Z,7.10
2023-04-11T04:17:24.470Z,7.80
2023-04-11T04:19:51.609Z,4.30
2023-04-11T04:22:18.149Z,5.90
2023-04-11T04:24:47.587Z,5.90
2023-04-11T04:27:14.025Z,4.77
2023-04-11T04:29:53.787Z,8.60
2023-04-11T04:32:23.026Z,3.80
2023-04-11T04:34:55.000Z,6.87
2023-04-11T04:37:25.540Z,8.50
2023-04-11T04:39:55.905Z,7.07
2023-04-11T04:42:26.977Z,6.07
2023-04-11T04:44:54.889Z,6.97
2023-04-11T04:47:26.058Z,9.60
2023-04-11T04:49:56.745Z,7.40
2023-04-11T04:52:27.414Z,6.00
2023-04-11T04:54:57.885Z,4.20
2023-04-11T04:57:28.898Z,7.47
2023-04-11T04:59:56.010Z,6.97
2023-04-11T05:02:22.645Z,5.70
2023-04-11T05:04:50.619Z,6.33
2023-04-11T05:07:18.295Z,8.73
2023-04-11T05:09:44.916Z,6.03
2023-04-11T05:12:11.583Z,5.60
2023-04-11T05:14:38.054Z,6.70
2023-04-11T05:17:04.870Z,6.80
2023-04-11T05:19:32.282Z,3.90
2023-04-11T05:21:58.713Z,7.50
2023-04-11T05:24:25.593Z,7.13
2023-04-11T05:26:51.996Z,6.67
2023-04-11T05:29:18.474Z,6.63
2023-04-11T05:31:44.870Z,8.33
2023-04-11T05:34:11.479Z,4.20
2023-04-11T05:36:37.864Z,7.83
2023-04-11T05:39:04.538Z,3.97
2023-04-11T05:41:30.955Z,4.47
2023-04-11T05:43:57.643Z,3.80
2023-04-11T05:46:24.330Z,7.40
2023-04-11T05:48:51.017Z,7.97
2023-04-11T05:51:17.389Z,5.63
2023-04-11T05:53:43.987Z,4.33
2023-04-11T05:56:12.415Z,5.43
2023-04-11T05:58:39.435Z,3.57
2023-04-11T06:01:07.265Z,8.13
2023-04-11T06:03:33.954Z,4.37
2023-04-11T06:06:00.645Z,5.97
2023-04-11T06:08:27.623Z,5.57
2023-04-11T06:10:53.996Z,7.70
2023-04-11T06:13:20.712Z,7.70
2023-04-11T06:15:47.264Z,5.47
2023-04-11T06:18:13.773Z,8.83
2023-04-11T06:20:40.161Z,8.30
2023-04-11T06:23:06.672Z,8.43
2023-04-11T06:25:33.070Z,9.20
2023-04-11T06:27:59.692Z,7.93
2023-04-11T06:30:26.199Z,11.00
2023-04-11T06:32:52.716Z,8.73
2023-04-11T06:35:20.418Z,11.23
2023-04-11T06:37:47.327Z,12.50
2023-04-11T06:40:13.781Z,16.50
2023-04-11T06:42:40.336Z,11.20
2023-04-11T06:45:07.119Z,10.43
2023-04-11T06:47:33.622Z,11.43
2023-04-11T06:50:00.196Z,13.93
2023-04-11T06:52:28.294Z,15.63
2023-04-11T06:54:54.840Z,13.93
2023-04-11T06:57:21.293Z,12.67
2023-04-11T06:59:48.024Z,11.63
2023-04-11T07:02:14.647Z,16.53
2023-04-11T07:04:41.272Z,9.37
2023-04-11T07:07:07.804Z,14.33
2023-04-11T07:09:34.251Z,11.70
2023-04-11T07:12:01.268Z,13.23
2023-04-11T07:14:27.635Z,10.03
2023-04-11T07:16:54.047Z,10.40
2023-04-11T07:19:20.438Z,7.97
2023-04-11T07:21:46.826Z,10.87
2023-04-11T07:24:13.319Z,10.93
2023-04-11T07:26:42.210Z,14.83
2023-04-11T07:29:11.600Z,7.50
2023-04-11T07:31:39.615Z,10.80
2023-04-11T07:34:06.433Z,9.90
2023-04-11T07:36:34.292Z,8.60
2023-04-11T07:39:00.764Z,11.10
2023-04-11T07:41:27.168Z,10.40
2023-04-11T07:43:53.693Z,5.67
2023-04-11T07:46:20.556Z,7.70
2023-04-11T07:48:47.068Z,8.77
2023-04-11T07:51:13.491Z,9.30
2023-04-11T07:53:40.044Z,8.10
2023-04-11T07:56:06.793Z,9.97
2023-04-11T07:58:33.282Z,10.87
2023-04-11T08:00:59.772Z,8.03
2023-04-11T08:03:27.299Z,7.80
2023-04-11T08:05:54.159Z,7.83
2023-04-11T08:08:20.564Z,7.83
2023-04-11T08:10:47.010Z,9.73
2023-04-11T08:13:13.696Z,7.10
2023-04-11T08:15:40.138Z,11.10
2023-04-11T08:18:06.553Z,8.33
2023-04-11T08:20:32.965Z,9.37
2023-04-11T08:23:00.518Z,4.93
2023-04-11T08:25:27.001Z,11.53
2023-04-11T08:27:53.445Z,8.37
2023-04-11T08:30:20.177Z,8.57
2023-04-11T08:32:46.811Z,5.73
2023-04-11T08:35:13.369Z,7.90
2023-04-11T08:37:39.802Z,9.80
2023-04-11T08:40:06.986Z,7.73
2023-04-11T08:42:34.124Z,9.97
2023-04-11T08:45:03.176Z,4.87
2023-04-11T08:47:30.030Z,4.87
2023-04-11T08:49:56.664Z,11.07
2023-04-11T08:52:24.358Z,5.93
2023-04-11T08:54:56.290Z,4.20
2023-04-11T08:57:27.427Z,6.23
2023-04-11T09:00:00.266Z,4.13
2023-04-11T09:02:27.621Z,11.73
2023-04-11T09:04:54.631Z,9.17
2023-04-11T09:07:22.265Z,6.77
2023-04-11T09:09:48.781Z,8.63
2023-04-11T09:12:15.776Z,7.90
2023-04-11T09:14:42.235Z,7.20
2023-04-11T09:17:16.851Z,4.73
2023-04-11T09:19:44.258Z,5.20
2023-04-11T09:22:12.704Z,1.10
2023-04-11T09:24:39.121Z,1.40
2023-04-11T09:54:53.430Z,7.00
2023-04-11T09:57:22.818Z,4.77
2023-04-11T09:59:49.763Z,5.67
2023-04-11T10:02:16.479Z,4.73
2023-04-11T10:04:43.256Z,10.13
2023-04-11T10:07:14.137Z,5.20
2023-04-11T10:35:00.135Z,7.50
2023-04-11T10:37:33.932Z,8.70
2023-04-11T10:40:09.752Z,3.77
2023-04-11T10:42:38.774Z,9.33
2023-04-11T10:45:24.529Z,5.93
2023-04-11T10:47:56.969Z,3.60
2023-04-11T10:50:23.602Z,4.40
2023-04-11T10:52:50.171Z,6.03
2023-04-11T10:55:17.985Z,4.87
2023-04-11T10:58:04.283Z,4.30
2023-04-11T11:01:21.170Z,5.50
2023-04-11T11:03:57.679Z,4.40
2023-04-11T11:06:24.658Z,7.53
2023-04-11T11:08:51.232Z,7.37
2023-04-11T11:11:19.272Z,3.73
2023-04-11T11:13:48.845Z,7.53
2023-04-11T11:16:17.161Z,6.03
2023-04-11T11:18:48.598Z,6.60
2023-04-11T11:21:24.775Z,6.67
2023-04-11T11:23:56.460Z,6.03
2023-04-11T11:26:24.833Z,3.70
2023-04-11T11:38:37.238Z,6.37
2023-04-11T11:41:04.162Z,6.23
2023-04-11T11:43:36.128Z,5.37
2023-04-11T11:48:36.258Z,4.90
2023-04-11T11:51:02.730Z,5.37
2023-04-11T11:53:29.132Z,6.93
2023-04-11T11:55:56.854Z,6.43
2023-04-11T11:58:23.341Z,4.27
2023-04-11T12:00:51.006Z,3.83
2023-04-11T12:03:21.123Z,4.73
2023-04-11T12:05:48.218Z,4.43
2023-04-11T12:08:14.842Z,4.77
2023-04-11T12:10:42.782Z,5.57
2023-04-11T12:13:20.717Z,3.67
2023-04-11T12:15:52.322Z,7.83
2023-04-11T12:18:23.484Z,4.70
2023-04-11T12:20:50.610Z,2.97
2023-04-11T12:23:17.917Z,5.23
2023-04-11T12:25:44.754Z,3.97
2023-04-11T12:28:11.445Z,3.00
2023-04-11T12:30:38.102Z,5.97
2023-04-11T12:33:04.799Z,2.20
2023-04-11T12:45:24.055Z,1.57
2023-04-11T12:47:50.933Z,1.57
2023-04-11T12:50:17.423Z,5.70
2023-04-11T12:52:43.805Z,3.33
2023-04-11T12:55:10.439Z,1.73
2023-04-11T12:57:36.913Z,2.93
2023-04-11T13:00:11.280Z,2.80
2023-04-11T13:02:43.121Z,3.63
2023-04-11T13:05:14.576Z,1.80
2023-04-11T13:07:42.058Z,1.33
2023-04-11T13:10:08.900Z,1.77
2023-04-11T13:12:41.009Z,1.47
2023-04-11T13:15:08.153Z,4.33
2023-04-11T13:17:34.701Z,2.03
2023-04-11T13:20:01.305Z,3.60
2023-04-11T13:22:27.768Z,3.90
2023-04-11T13:24:54.167Z,3.23
2023-04-11T13:27:22.082Z,1.90
2023-04-11T13:29:48.607Z,2.13
2023-04-11T13:32:15.258Z,1.87
2023-04-11T13:34:41.644Z,5.40
2023-04-11T13:37:08.066Z,2.60
2023-04-11T13:39:34.525Z,2.77
2023-04-11T13:42:00.903Z,2.93
2023-04-11T13:44:27.313Z,5.03
2023-04-11T13:46:53.953Z,5.43
2023-04-11T13:49:20.347Z,3.53
2023-04-11T13:51:46.760Z,3.13
2023-04-11T13:54:13.151Z,2.63
2023-04-11T13:56:39.623Z,4.00
2023-04-11T13:59:06.184Z,6.07
2023-04-11T14:01:32.732Z,3.63
2023-04-11T14:04:00.702Z,2.27
2023-04-11T14:06:27.517Z,6.07
2023-04-11T14:08:53.983Z,2.67
2023-04-11T14:11:21.004Z,4.87
2023-04-11T14:13:47.410Z,3.97
2023-04-11T14:16:13.832Z,4.37
2023-04-11T14:18:40.386Z,3.87
2023-04-11T14:21:07.120Z,3.63
2023-04-11T14:23:33.640Z,3.50
2023-04-11T14:26:00.048Z,4.20
2023-04-11T14:28:26.794Z,4.33
2023-04-11T14:30:53.814Z,4.93
2023-04-11T14:33:20.444Z,3.70
2023-04-11T14:35:47.122Z,4.00
2023-04-11T14:38:15.037Z,8.30
2023-04-11T14:40:41.703Z,4.77
2023-04-11T14:43:08.201Z,6.37
2023-04-11T14:45:34.658Z,4.23
2023-04-11T14:48:01.177Z,2.60
2023-04-11T14:50:28.903Z,2.63
2023-04-11T14:57:51.924Z,1.40
2023-04-11T15:00:21.864Z,4.10
2023-04-11T15:02:51.980Z,2.10
2023-04-11T15:05:19.515Z,2.20
2023-04-11T15:07:47.362Z,2.17
2023-04-11T15:10:14.351Z,1.73
2023-04-11T15:27:27.799Z,3.83
2023-04-11T15:56:48.552Z,5.80
2023-04-11T20:38:31.328Z,21.50
2023-04-11T20:40:57.837Z,22.10
2023-04-11T20:43:26.079Z,37.90
2023-04-11T20:45:53.269Z,31.43
2023-04-11T20:48:19.804Z,33.73
2023-04-11T20:50:47.235Z,31.30
2023-04-11T20:53:14.450Z,40.70
2023-04-11T20:55:41.166Z,45.43
2023-04-11T20:58:08.555Z,62.37
2023-04-11T21:00:35.940Z,55.53
2023-04-11T21:03:02.713Z,36.23
2023-04-11T21:05:29.614Z,35.13
2023-04-11T21:07:59.305Z,29.00
2023-04-11T21:10:25.797Z,26.80
2023-04-11T21:12:53.687Z,32.87
2023-04-11T21:15:20.842Z,33.17
2023-04-11T21:17:47.424Z,22.37
2023-04-11T21:20:20.508Z,16.83
2023-04-11T21:22:47.852Z,22.40
2023-04-11T21:25:14.760Z,26.57
2023-04-11T21:27:41.663Z,23.37
2023-04-11T21:30:09.534Z,27.70
2023-04-11T21:32:36.121Z,25.17
2023-04-11T21:35:05.992Z,23.37
2023-04-11T21:37:32.432Z,23.97
2023-04-11T21:39:58.873Z,23.57
2023-04-11T21:42:25.349Z,19.10
2023-04-11T21:44:51.722Z,14.80
2023-04-11T21:47:18.220Z,18.67
2023-04-11T21:49:46.786Z,22.97
2023-04-11T21:52:13.212Z,15.87
2023-04-11T21:54:42.028Z,15.53
2023-04-11T21:57:08.431Z,14.00
2023-04-11T21:59:35.249Z,15.80
2023-04-11T22:02:02.633Z,14.47
2023-04-11T22:04:29.390Z,10.70
2023-04-11T22:06:58.320Z,11.27
2023-04-11T22:09:24.799Z,14.30
2023-04-11T22:11:51.399Z,14.73
2023-04-11T22:14:18.371Z,12.13
2023-04-11T22:16:50.992Z,12.40
2023-04-11T22:19:18.055Z,16.83
